createdAt,value
2023-04-15T00:01:11.913Z,67.92
2023-04-15T00:03:39.170Z,68.08
2023-04-15T00:06:06.237Z,67.82
2023-04-15T00:08:33.307Z,67.76
2023-04-15T00:11:03.237Z,67.72
2023-04-15T00:13:29.993Z,67.51
2023-04-15T00:15:56.698Z,68.75
2023-04-15T00:18:24.703Z,68.54
2023-04-15T00:20:51.288Z,68.39
2023-04-15T00:23:18.103Z,68.86
2023-04-15T00:25:45.017Z,68.21
2023-04-15T00:28:11.742Z,67.99
2023-04-15T00:30:39.050Z,68.13
2023-04-15T00:33:05.806Z,68.13
2023-04-15T00:35:33.791Z,68.72
2023-04-15T00:38:00.662Z,68.53
2023-04-15T00:40:27.891Z,69.17
2023-04-15T00:42:54.591Z,68.29
2023-04-15T00:45:21.360Z,68.03
2023-04-15T00:47:48.022Z,68.33
2023-04-15T00:50:14.634Z,69.19
2023-04-15T00:52:41.621Z,69.38
2023-04-15T00:55:08.904Z,69.96
2023-04-15T00:57:36.514Z,70.51
2023-04-15T01:00:04.882Z,70.04
2023-04-15T01:02:32.671Z,69.33
2023-04-15T01:04:59.671Z,70.41
2023-04-15T01:07:26.393Z,70.40
2023-04-15T01:09:53.180Z,70.63
2023-04-15T01:12:20.667Z,70.86
2023-04-15T01:14:47.345Z,71.31
2023-04-15T01:17:14.536Z,71.27
2023-04-15T01:19:42.421Z,71.72
2023-04-15T01:22:09.268Z,71.71
2023-04-15T01:24:37.661Z,71.30
2023-04-15T01:27:05.474Z,70.99
2023-04-15T01:29:33.405Z,71.26
2023-04-15T01:32:00.343Z,71.60
2023-04-15T01:34:27.234Z,71.46
2023-04-15T01:36:53.871Z,71.06
2023-04-15T01:39:20.494Z,71.04
2023-04-15T01:41:47.480Z,71.75
2023-04-15T01:44:14.156Z,71.19
2023-04-15T01:46:41.208Z,71.83
2023-04-15T01:49:07.864Z,70.90
2023-04-15T01:51:34.516Z,70.98
2023-04-15T01:54:01.569Z,70.45
2023-04-15T01:56:29.508Z,71.34
2023-04-15T01:58:56.290Z,70.79
2023-04-15T02:01:23.097Z,70.28
2023-04-15T02:03:49.958Z,70.19
2023-04-15T02:06:16.759Z,70.02
2023-04-15T02:08:43.378Z,69.85
2023-04-15T02:11:10.146Z,70.22
2023-04-15T02:13:37.006Z,70.19
2023-04-15T02:16:04.050Z,70.12
2023-04-15T02:18:30.853Z,70.55
2023-04-15T02:20:58.696Z,70.91
2023-04-15T02:23:25.769Z,71.35
2023-04-15T02:25:53.553Z,71.66
2023-04-15T02:28:21.606Z,72.08
2023-04-15T02:30:52.954Z,72.38
2023-04-15T02:33:25.978Z,73.05
2023-04-15T02:35:53.304Z,72.85
2023-04-15T02:38:19.946Z,72.73
2023-04-15T02:40:46.643Z,73.01
2023-04-15T02:43:13.362Z,73.18
2023-04-15T02:45:40.005Z,73.04
2023-04-15T02:48:06.759Z,72.98
2023-04-15T02:50:33.602Z,73.28
2023-04-15T02:53:01.785Z,73.58
2023-04-15T02:55:29.035Z,73.28
2023-04-15T02:57:55.899Z,73.57
2023-04-15T03:00:25.426Z,73.76
2023-04-15T03:02:56.790Z,73.57
2023-04-15T03:05:29.438Z,73.04
2023-04-15T03:07:56.188Z,73.75
2023-04-15T03:10:23.086Z,73.62
2023-04-15T03:12:49.735Z,74.09
2023-04-15T03:15:16.795Z,74.06
2023-04-15T03:17:43.529Z,74.14
2023-04-15T03:20:10.492Z,74.34
2023-04-15T03:22:37.141Z,74.40
2023-04-15T03:25:04.032Z,74.61
2023-04-15T03:27:30.712Z,74.73
2023-04-15T03:29:57.419Z,74.39
2023-04-15T03:32:24.224Z,74.74
2023-04-15T03:34:50.825Z,74.13
2023-04-15T03:37:17.445Z,74.69
2023-04-15T03:39:44.049Z,74.81
2023-04-15T03:42:11.119Z,74.80
2023-04-15T03:44:38.487Z,75.20
2023-04-15T03:47:05.137Z,76.02
2023-04-15T03:49:31.766Z,76.05
2023-04-15T03:51:58.411Z,76.15
2023-04-15T03:54:25.058Z,75.24
2023-04-15T03:56:52.614Z,75.96
2023-04-15T03:59:19.218Z,76.17
2023-04-15T04:01:45.978Z,75.56
2023-04-15T04:04:12.751Z,75.98
2023-04-15T04:06:39.602Z,76.31
2023-04-15T04:09:06.432Z,75.87
2023-04-15T04:11:33.138Z,76.04
2023-04-15T04:14:01.852Z,76.10
2023-04-15T04:16:28.566Z,76.61
2023-04-15T04:18:55.330Z,76.81
2023-04-15T04:21:22.000Z,76.73
2023-04-15T04:23:48.644Z,76.97
2023-04-15T04:26:15.229Z,76.61
2023-04-15T04:28:42.104Z,76.68
2023-04-15T04:31:08.799Z,76.97
2023-04-15T04:33:35.542Z,77.56
2023-04-15T04:36:02.097Z,77.16
2023-04-15T04:38:28.730Z,76.88
2023-04-15T04:40:55.427Z,77.18
2023-04-15T04:43:22.100Z,77.67
2023-04-15T04:45:48.837Z,77.68
2023-04-15T04:48:15.545Z,76.91
2023-04-15T04:50:42.342Z,77.19
2023-04-15T04:53:09.020Z,77.65
2023-04-15T04:55:37.111Z,78.25
2023-04-15T04:58:03.715Z,78.52
2023-04-15T05:00:30.573Z,78.67
2023-04-15T05:03:09.688Z,78.54
2023-04-15T05:05:39.441Z,78.43
2023-04-15T05:08:06.035Z,78.74
2023-04-15T05:10:32.682Z,79.00
2023-04-15T05:12:59.410Z,78.47
2023-04-15T05:15:26.041Z,78.93
2023-04-15T05:17:52.718Z,78.94
2023-04-15T05:20:20.037Z,79.21
2023-04-15T05:22:46.665Z,78.99
2023-04-15T05:25:13.814Z,79.09
2023-04-15T05:27:40.552Z,79.42
2023-04-15T05:30:07.849Z,79.72
2023-04-15T05:32:34.520Z,79.55
2023-04-15T05:35:01.226Z,79.36
2023-04-15T05:37:43.521Z,79.55
2023-04-15T05:40:10.796Z,78.91
2023-04-15T05:42:38.736Z,79.30
2023-04-15T05:45:14.793Z,79.05
2023-04-15T05:47:47.346Z,79.13
2023-04-15T05:50:13.946Z,78.76
2023-04-15T05:52:40.726Z,79.22
2023-04-15T05:55:07.792Z,79.79
2023-04-15T05:57:34.459Z,79.60
2023-04-15T06:00:01.003Z,79.67
2023-04-15T06:02:28.016Z,79.56
2023-04-15T06:04:54.877Z,79.90
2023-04-15T06:07:21.612Z,80.13
2023-04-15T06:09:48.701Z,80.09
2023-04-15T06:12:17.787Z,79.72
2023-04-15T06:14:44.470Z,79.96
2023-04-15T06:17:11.376Z,80.15
2023-04-15T06:19:38.136Z,80.46
2023-04-15T06:22:07.897Z,80.23
2023-04-15T06:24:37.062Z,80.78
2023-04-15T06:27:03.849Z,80.71
2023-04-15T06:29:30.703Z,80.47
2023-04-15T06:31:59.237Z,80.55
2023-04-15T06:34:25.889Z,80.82
2023-04-15T06:36:53.629Z,80.79
2023-04-15T06:39:20.323Z,80.38
2023-04-15T06:41:47.388Z,80.05
2023-04-15T06:44:14.070Z,79.92
2023-04-15T06:46:40.757Z,79.65
2023-04-15T06:49:09.471Z,79.70
2023-04-15T06:51:36.761Z,79.22
2023-04-15T06:54:06.197Z,79.46
2023-04-15T06:56:33.654Z,79.52
2023-04-15T06:59:00.497Z,79.42
2023-04-15T07:01:27.720Z,79.13
2023-04-15T07:03:55.709Z,78.70
2023-04-15T07:06:22.463Z,78.68
2023-04-15T07:09:01.897Z,77.69
2023-04-15T07:11:28.935Z,77.44
2023-04-15T07:13:55.598Z,77.43
2023-04-15T07:16:22.806Z,77.48
2023-04-15T07:21:36.391Z,77.09
2023-04-15T07:24:03.123Z,77.08
2023-04-15T07:26:29.865Z,76.81
2023-04-15T07:28:56.593Z,76.60
2023-04-15T07:34:46.231Z,75.58
2023-04-15T07:37:55.710Z,75.02
2023-04-15T07:40:22.482Z,74.49
2023-04-15T07:42:52.556Z,73.75
2023-04-15T07:46:16.981Z,73.50
2023-04-15T07:48:45.425Z,72.61
2023-04-15T07:59:20.034Z,70.69
2023-04-15T08:08:37.323Z,69.60
2023-04-15T08:11:31.698Z,70.17
2023-04-15T08:14:06.854Z,69.14
2023-04-15T08:31:54.616Z,67.64
2023-04-15T08:34:24.566Z,68.07
2023-04-15T08:36:58.329Z,66.87
2023-04-15T08:50:05.294Z,66.45
2023-04-15T09:06:07.909Z,66.52
2023-04-15T09:08:46.320Z,65.91
2023-04-15T09:14:40.840Z,65.04
2023-04-15T09:17:14.475Z,64.71
2023-04-15T09:19:41.144Z,64.90
2023-04-15T09:22:10.871Z,64.91
2023-04-15T09:24:39.622Z,64.63
2023-04-15T09:27:11.698Z,65.59
2023-04-15T09:36:57.485Z,64.36
2023-04-15T09:39:26.657Z,65.25
2023-04-15T09:42:50.335Z,63.83
2023-04-15T09:45:17.028Z,64.03
2023-04-15T09:47:43.931Z,63.98
2023-04-15T09:50:13.178Z,63.19
2023-04-15T09:52:43.923Z,62.85
2023-04-15T09:55:11.800Z,63.54
2023-04-15T09:57:41.178Z,64.19
2023-04-15T10:00:11.134Z,64.01
2023-04-15T10:02:39.991Z,64.31
2023-04-15T10:05:07.683Z,64.05
2023-04-15T10:07:35.199Z,64.10
2023-04-15T10:10:03.735Z,63.70
2023-04-15T10:12:31.804Z,62.70
2023-04-15T10:15:03.752Z,62.28
2023-04-15T10:17:38.240Z,62.77
2023-04-15T10:20:05.923Z,60.26
2023-04-15T10:22:33.410Z,60.49
2023-04-15T10:25:02.189Z,61.00
2023-04-15T10:27:29.245Z,59.92
2023-04-15T10:29:56.951Z,60.68
2023-04-15T10:32:25.560Z,61.60
2023-04-15T10:34:54.727Z,61.60
2023-04-15T10:37:33.497Z,60.25
2023-04-15T10:40:00.061Z,59.81
2023-04-15T10:42:34.322Z,59.21
2023-04-15T10:45:00.866Z,59.75
2023-04-15T10:47:28.586Z,60.88
2023-04-15T10:50:01.155Z,59.79
2023-04-15T10:52:29.495Z,59.07
2023-04-15T10:55:12.283Z,60.03
2023-04-15T10:57:40.057Z,60.41
2023-04-15T11:00:13.738Z,59.32
2023-04-15T11:02:47.361Z,59.45
2023-04-15T11:05:15.589Z,57.97
2023-04-15T11:07:47.003Z,58.70
2023-04-15T11:10:13.584Z,57.75
2023-04-15T11:12:41.236Z,58.14
2023-04-15T11:15:30.653Z,58.11
2023-04-15T11:17:58.950Z,58.06
2023-04-15T11:20:26.387Z,55.62
2023-04-15T11:23:14.442Z,55.69
2023-04-15T11:25:41.906Z,56.42
2023-04-15T11:28:08.610Z,56.73
2023-04-15T11:30:37.459Z,57.54
2023-04-15T11:33:06.504Z,57.31
2023-04-15T11:35:33.604Z,58.80
2023-04-15T11:38:05.356Z,58.70
2023-04-15T11:40:33.565Z,58.56
2023-04-15T11:43:08.888Z,56.36
2023-04-15T11:45:37.124Z,56.56
2023-04-15T11:48:11.576Z,56.88
2023-04-15T11:50:40.903Z,56.95
2023-04-15T11:53:10.466Z,57.99
2023-04-15T11:55:44.111Z,56.91
2023-04-15T11:58:16.644Z,56.55
2023-04-15T12:00:50.882Z,56.90
2023-04-15T12:03:27.606Z,57.32
2023-04-15T12:06:19.922Z,56.27
2023-04-15T12:08:51.222Z,56.10
2023-04-15T12:11:18.077Z,56.98
2023-04-15T12:13:47.210Z,56.54
2023-04-15T12:16:17.297Z,56.73
2023-04-15T12:18:47.659Z,55.80
2023-04-15T12:21:14.403Z,55.12
2023-04-15T12:23:50.929Z,55.21
2023-04-15T12:26:18.352Z,55.48
2023-04-15T12:28:44.977Z,56.38
2023-04-15T12:31:13.414Z,56.87
2023-04-15T12:33:40.504Z,57.16
2023-04-15T12:36:07.234Z,56.95
2023-04-15T12:38:33.840Z,57.89
2023-04-15T12:41:00.485Z,57.94
2023-04-15T12:43:27.737Z,58.06
2023-04-15T12:45:54.556Z,57.68
2023-04-15T12:48:21.519Z,58.28
2023-04-15T12:50:48.108Z,57.41
2023-04-15T12:53:14.969Z,58.15
2023-04-15T12:55:41.876Z,58.30
2023-04-15T12:58:08.613Z,57.93
2023-04-15T13:03:20.078Z,58.70
2023-04-15T13:05:46.687Z,57.05
2023-04-15T13:08:16.569Z,58.51
2023-04-15T13:10:43.505Z,58.74
2023-04-15T13:13:12.484Z,59.40
2023-04-15T13:18:31.217Z,60.00
2023-04-15T13:21:23.307Z,60.87
2023-04-15T13:23:51.248Z,61.72
2023-04-15T13:26:23.516Z,62.23
2023-04-15T13:28:50.314Z,62.13
2023-04-15T13:31:18.420Z,62.50
2023-04-15T13:33:47.890Z,62.04
2023-04-15T13:36:14.621Z,62.09
2023-04-15T13:38:44.101Z,62.67
2023-04-15T13:41:10.939Z,62.71
2023-04-15T13:43:40.776Z,62.88
2023-04-15T13:46:07.545Z,63.72
2023-04-15T13:48:34.237Z,63.77
2023-04-15T13:52:02.684Z,63.29
2023-04-15T13:54:37.156Z,63.33
2023-04-15T13:57:10.327Z,62.80
2023-04-15T13:59:36.982Z,63.58
2023-04-15T14:02:04.832Z,63.01
2023-04-15T14:04:34.217Z,61.99
2023-04-15T14:07:05.336Z,62.01
2023-04-15T14:10:03.670Z,62.32
2023-04-15T14:12:34.293Z,63.20
2023-04-15T14:15:29.120Z,63.28
2023-04-15T14:17:56.012Z,63.64
2023-04-15T14:20:22.739Z,64.12
2023-04-15T14:23:14.652Z,65.18
2023-04-15T14:25:40.073Z,66.42
2023-04-15T14:28:06.834Z,66.29
2023-04-15T14:30:36.090Z,66.31
2023-04-15T14:33:02.964Z,66.57
2023-04-15T14:35:49.871Z,66.60
2023-04-15T14:39:12.975Z,66.94
2023-04-15T14:41:30.823Z,66.62
2023-04-15T14:43:57.625Z,66.12
2023-04-15T14:46:25.529Z,65.55
2023-04-15T14:48:55.943Z,65.13
2023-04-15T14:51:24.381Z,65.24
2023-04-15T14:53:51.213Z,65.06
2023-04-15T14:56:20.005Z,65.22
2023-04-15T14:58:49.432Z,65.95
2023-04-15T15:01:16.263Z,66.69
2023-04-15T15:04:05.442Z,66.43
2023-04-15T15:06:34.745Z,66.61
2023-04-15T15:09:02.172Z,66.77
2023-04-15T15:11:29.721Z,65.76
2023-04-15T15:13:59.424Z,65.96
2023-04-15T15:16:26.380Z,66.25
2023-04-15T15:18:53.177Z,66.36
2023-04-15T15:21:19.818Z,66.78
2023-04-15T15:23:48.546Z,67.01
2023-04-15T15:26:15.804Z,67.49
2023-04-15T15:29:05.161Z,67.64
2023-04-15T15:31:31.870Z,67.47
2023-04-15T15:33:58.659Z,67.88
2023-04-15T15:36:29.106Z,68.14
2023-04-15T15:39:00.076Z,68.91
2023-04-15T15:41:26.749Z,69.18
2023-04-15T15:43:56.200Z,69.83
2023-04-15T15:46:24.295Z,70.35
2023-04-15T15:48:51.044Z,70.27
2023-04-15T15:51:17.787Z,69.96
2023-04-15T15:53:45.954Z,70.20
2023-04-15T15:56:12.629Z,70.10
2023-04-15T15:58:39.267Z,70.64
2023-04-15T16:01:06.105Z,70.66
2023-04-15T16:03:32.973Z,71.39
2023-04-15T16:05:59.847Z,71.16
2023-04-15T16:08:26.733Z,71.21
2023-04-15T16:10:53.516Z,70.83
2023-04-15T16:13:20.458Z,71.30
2023-04-15T16:15:47.091Z,71.71
2023-04-15T16:18:13.702Z,71.59
2023-04-15T16:20:42.152Z,71.48
2023-04-15T16:23:18.488Z,71.67
2023-04-15T16:25:48.207Z,71.84
2023-04-15T16:28:25.546Z,71.53
2023-04-15T16:30:53.788Z,72.13
2023-04-15T16:33:20.462Z,71.63
2023-04-15T16:35:47.147Z,71.91
2023-04-15T16:38:17.150Z,71.88
2023-04-15T16:40:43.888Z,71.97
2023-04-15T16:43:11.603Z,71.88
2023-04-15T16:45:38.618Z,72.37
2023-04-15T16:48:05.840Z,72.26
2023-04-15T16:50:32.825Z,72.93
2023-04-15T16:53:00.703Z,72.56
2023-04-15T16:55:37.748Z,72.93
2023-04-15T16:58:05.958Z,73.08
2023-04-15T17:00:41.429Z,73.49
2023-04-15T17:03:08.214Z,72.87
2023-04-15T17:05:35.085Z,73.01
2023-04-15T17:08:01.742Z,73.41
2023-04-15T17:10:28.655Z,73.09
2023-04-15T17:12:58.637Z,73.22
2023-04-15T17:15:26.171Z,73.73
2023-04-15T17:17:53.268Z,73.59
2023-04-15T17:20:21.498Z,73.38
2023-04-15T17:22:48.699Z,73.52
2023-04-15T17:25:16.028Z,73.80
2023-04-15T17:27:42.769Z,73.53
2023-04-15T17:30:10.181Z,73.44
2023-04-15T17:32:37.276Z,73.80
2023-04-15T17:35:06.570Z,74.21
2023-04-15T17:37:34.231Z,74.19
2023-04-15T17:40:08.655Z,74.43
2023-04-15T17:42:35.610Z,75.11
2023-04-15T17:45:05.931Z,74.68
2023-04-15T17:47:32.595Z,74.55
2023-04-15T17:49:59.402Z,74.34
2023-04-15T17:55:22.121Z,74.70
2023-04-15T17:57:50.272Z,74.73
2023-04-15T18:00:17.127Z,75.31
2023-04-15T18:03:00.686Z,75.50
2023-04-15T18:05:27.521Z,75.65
2023-04-15T18:13:15.602Z,75.33
2023-04-15T18:15:47.201Z,74.60
2023-04-15T18:18:14.274Z,75.08
2023-04-15T18:20:40.970Z,74.51
2023-04-15T18:23:07.738Z,74.56
2023-04-15T18:25:34.395Z,74.45
2023-04-15T18:28:02.213Z,74.51
2023-04-15T18:30:28.856Z,74.65
2023-04-15T18:32:55.795Z,75.09
2023-04-15T18:35:36.055Z,74.95
2023-04-15T18:38:02.898Z,75.43
2023-04-15T18:40:41.795Z,74.93
2023-04-15T18:43:09.509Z,75.58
2023-04-15T18:45:37.672Z,75.43
2023-04-15T18:48:30.508Z,75.55
2023-04-15T18:51:01.725Z,75.69
2023-04-15T18:53:37.060Z,76.12
2023-04-15T18:56:18.574Z,76.59
2023-04-15T18:59:09.716Z,77.33
2023-04-15T19:01:41.237Z,77.52
2023-04-15T19:04:08.199Z,78.24
2023-04-15T19:06:42.458Z,78.66
2023-04-15T19:11:52.131Z,78.86
2023-04-15T19:14:19.134Z,79.20
2023-04-15T19:16:45.855Z,79.07
2023-04-15T19:19:14.735Z,79.35
2023-04-15T19:22:00.760Z,79.19
2023-04-15T19:24:27.597Z,79.54
2023-04-15T19:27:07.358Z,79.63
2023-04-15T19:32:16.076Z,80.04
2023-04-15T19:34:45.399Z,80.25
2023-04-15T19:40:15.964Z,81.02
2023-04-15T19:42:43.808Z,81.05
2023-04-15T19:45:22.770Z,80.73
2023-04-15T19:48:06.564Z,81.01
2023-04-15T19:51:02.958Z,80.76
2023-04-15T19:53:30.975Z,81.18
2023-04-15T19:56:07.114Z,80.61
2023-04-15T19:58:46.973Z,80.68
2023-04-15T20:01:13.639Z,80.71
2023-04-15T20:06:46.780Z,80.79
2023-04-15T20:09:13.520Z,81.04
2023-04-15T20:14:25.254Z,80.98
2023-04-15T20:16:55.437Z,81.02
2023-04-15T20:19:22.091Z,80.90
2023-04-15T20:21:50.797Z,80.78
2023-04-15T20:27:39.945Z,80.73
2023-04-15T20:30:20.747Z,81.24
2023-04-15T20:35:55.071Z,81.34
2023-04-15T20:38:49.486Z,81.05
2023-04-15T20:41:16.172Z,81.36
2023-04-15T20:43:43.895Z,81.16
2023-04-15T20:46:20.562Z,81.41
2023-04-15T20:48:48.499Z,81.90
2023-04-15T20:51:15.441Z,82.20
2023-04-15T20:53:42.194Z,82.14
2023-04-15T20:56:13.463Z,81.91
2023-04-15T20:58:40.047Z,82.17
2023-04-15T21:01:22.079Z,82.37
2023-04-15T21:03:48.955Z,82.67
2023-04-15T21:06:17.848Z,82.81
2023-04-15T21:08:45.578Z,82.73
2023-04-15T21:11:36.579Z,82.56
2023-04-15T21:14:08.561Z,83.03
2023-04-15T21:17:08.446Z,83.06
2023-04-15T21:19:38.798Z,83.39
2023-04-15T21:22:05.376Z,83.85
2023-04-15T21:24:32.001Z,84.22
2023-04-15T21:26:58.603Z,84.46
2023-04-15T21:29:40.358Z,84.61
2023-04-15T21:32:07.275Z,85.13
2023-04-15T21:34:34.183Z,85.05
2023-04-15T21:37:01.024Z,85.30
2023-04-15T21:39:27.797Z,85.22
2023-04-15T21:41:54.452Z,85.26
2023-04-15T21:44:21.103Z,85.52
2023-04-15T21:46:47.741Z,85.94
2023-04-15T21:49:14.437Z,85.66
2023-04-15T21:51:41.217Z,85.90
2023-04-15T21:54:07.969Z,86.00
2023-04-15T21:56:34.640Z,86.07
2023-04-15T21:59:01.549Z,86.32
2023-04-15T22:01:37.560Z,86.51
2023-04-15T22:04:06.143Z,86.40
2023-04-15T22:06:35.572Z,86.92
2023-04-15T22:09:14.648Z,86.90
2023-04-15T22:11:41.367Z,87.43
2023-04-15T22:14:13.837Z,87.33
2023-04-15T22:16:40.491Z,87.31
2023-04-15T22:19:07.588Z,87.16
2023-04-15T22:21:39.459Z,87.59
2023-04-15T22:24:32.721Z,87.88
2023-04-15T22:27:04.258Z,87.72
2023-04-15T22:29:30.960Z,88.12
2023-04-15T22:31:57.984Z,88.29
2023-04-15T22:34:24.724Z,88.61
2023-04-15T22:36:55.135Z,88.86
2023-04-15T22:39:21.719Z,88.83
2023-04-15T22:41:48.526Z,89.26
2023-04-15T22:44:27.652Z,89.36
2023-04-15T22:46:54.717Z,89.27
2023-04-15T22:49:21.546Z,89.43
2023-04-15T22:51:48.163Z,89.41
2023-04-15T22:54:16.080Z,89.73
2023-04-15T22:56:42.711Z,89.78
2023-04-15T22:59:09.476Z,89.62
2023-04-15T23:01:36.291Z,90.12
2023-04-15T23:04:08.251Z,90.35
2023-04-15T23:06:35.645Z,90.33
2023-04-15T23:09:22.677Z,90.23
2023-04-15T23:11:49.801Z,90.26
2023-04-15T23:14:16.716Z,90.49
2023-04-15T23:16:48.450Z,90.76
2023-04-15T23:19:15.075Z,90.61
2023-04-15T23:21:41.760Z,90.83
2023-04-15T23:24:08.411Z,90.97
2023-04-15T23:26:35.018Z,91.34
2023-04-15T23:29:01.738Z,91.29
2023-04-15T23:31:30.893Z,91.42
2023-04-15T23:33:57.581Z,92.13
2023-04-15T23:36:24.380Z,91.97
2023-04-15T23:38:51.036Z,92.21
2023-04-15T23:41:17.728Z,92.54
2023-04-15T23:43:44.368Z,92.32
2023-04-15T23:46:11.956Z,92.42
2023-04-15T23:48:38.848Z,92.63
2023-04-15T23:51:05.966Z,92.77
2023-04-15T23:53:33.372Z,92.74
2023-04-15T23:56:00.032Z,93.00
2023-04-15T23:58:28.940Z,93.05
